sensor_id;sensor_type;location;lat;lon;timestamp;P1;durP1;ratioP1;P2;durP2;ratioP2
22632;SDS011;11483;55.828;37.488;2023-05-01T00:01:19;8.80;;;4.60;;
22632;SDS011;11483;55.828;37.488;2023-05-01T00:03:45;6.40;;;4.05;;
22632;SDS011;11483;55.828;37.488;2023-05-01T00:06:11;10.70;;;4.68;;
22632;SDS011;11483;55.828;37.488;2023-05-01T00:08:37;6.65;;;4.20;;
22632;SDS011;11483;55.828;37.488;2023-05-01T00:11:03;8.60;;;4.65;;
22632;SDS011;11483;55.828;37.488;2023-05-01T00:13:29;9.85;;;4.53;;
22632;SDS011;11483;55.828;37.488;2023-05-01T00:15:56;8.48;;;3.90;;
22632;SDS011;11483;55.828;37.488;2023-05-01T00:18:22;6.78;;;3.90;;
22632;SDS011;11483;55.828;37.488;2023-05-01T00:20:48;13.13;;;4.55;;
22632;SDS011;11483;55.828;37.488;2023-05-01T00:23:13;7.75;;;4.57;;
22632;SDS011;11483;55.828;37.488;2023-05-01T00:25:39;5.75;;;3.88;;
22632;SDS011;11483;55.828;37.488;2023-05-01T00:28:05;7.40;;;4.07;;
22632;SDS011;11483;55.828;37.488;2023-05-01T00:30:31;5.43;;;3.85;;
22632;SDS011;11483;55.828;37.488;2023-05-01T00:32:58;6.47;;;4.00;;
22632;SDS011;11483;55.828;37.488;2023-05-01T00:35:24;5.78;;;4.00;;
22632;SDS011;11483;55.828;37.488;2023-05-01T00:37:50;6.70;;;3.83;;
22632;SDS011;11483;55.828;37.488;2023-05-01T00:40:16;7.97;;;4.32;;
22632;SDS011;11483;55.828;37.488;2023-05-01T00:42:42;5.35;;;3.60;;
22632;SDS011;11483;55.828;37.488;2023-05-01T00:45:08;5.78;;;3.30;;
22632;SDS011;11483;55.828;37.488;2023-05-01T00:47:34;5.65;;;3.60;;
22632;SDS011;11483;55.828;37.488;2023-05-01T00:50:01;4.65;;;3.60;;
22632;SDS011;11483;55.828;37.488;2023-05-01T00:52:28;3.65;;;3.00;;
22632;SDS011;11483;55.828;37.488;2023-05-01T00:54:54;5.20;;;3.45;;
22632;SDS011;11483;55.828;37.488;2023-05-01T00:57:20;5.60;;;3.40;;
22632;SDS011;11483;55.828;37.488;2023-05-01T00:59:47;6.82;;;3.97;;
22632;SDS011;11483;55.828;37.488;2023-05-01T01:02:13;4.53;;;3.42;;
22632;SDS011;11483;55.828;37.488;2023-05-01T01:04:40;4.47;;;3.30;;
22632;SDS011;11483;55.828;37.488;2023-05-01T01:15:26;5.00;;;2.88;;
22632;SDS011;11483;55.828;37.488;2023-05-01T01:17:57;3.47;;;2.78;;
22632;SDS011;11483;55.828;37.488;2023-05-01T01:20:28;3.78;;;2.78;;
22632;SDS011;11483;55.828;37.488;2023-05-01T01:25:54;5.78;;;2.80;;
22632;SDS011;11483;55.828;37.488;2023-05-01T01:34:19;4.32;;;3.35;;
22632;SDS011;11483;55.828;37.488;2023-05-01T01:39:39;6.38;;;3.30;;
22632;SDS011;11483;55.828;37.488;2023-05-01T01:42:14;6.03;;;3.40;;
22632;SDS011;11483;55.828;37.488;2023-05-01T01:44:54;4.45;;;3.15;;
22632;SDS011;11483;55.828;37.488;2023-05-01T01:47:26;4.15;;;3.13;;
22632;SDS011;11483;55.828;37.488;2023-05-01T01:49:56;4.75;;;3.38;;
22632;SDS011;11483;55.828;37.488;2023-05-01T01:52:25;4.80;;;3.20;;
22632;SDS011;11483;55.828;37.488;2023-05-01T01:54:54;5.38;;;3.53;;
22632;SDS011;11483;55.828;37.488;2023-05-01T01:57:38;6.38;;;4.20;;
22632;SDS011;11483;55.828;37.488;2023-05-01T02:00:08;5.85;;;3.92;;
22632;SDS011;11483;55.828;37.488;2023-05-01T02:02:37;5.13;;;3.80;;
22632;SDS011;11483;55.828;37.488;2023-05-01T02:05:06;4.32;;;3.40;;
22632;SDS011;11483;55.828;37.488;2023-05-01T02:07:33;4.97;;;3.80;;
22632;SDS011;11483;55.828;37.488;2023-05-01T02:10:02;4.93;;;3.40;;
22632;SDS011;11483;55.828;37.488;2023-05-01T02:12:30;5.75;;;3.40;;
22632;SDS011;11483;55.828;37.488;2023-05-01T02:14:57;4.97;;;3.70;;
22632;SDS011;11483;55.828;37.488;2023-05-01T02:17:24;6.18;;;4.15;;
22632;SDS011;11483;55.828;37.488;2023-05-01T02:19:52;7.93;;;4.05;;
22632;SDS011;11483;55.828;37.488;2023-05-01T02:22:20;9.38;;;3.92;;
22632;SDS011;11483;55.828;37.488;2023-05-01T02:24:47;6.68;;;3.85;;
22632;SDS011;11483;55.828;37.488;2023-05-01T02:27:20;6.40;;;4.00;;
22632;SDS011;11483;55.828;37.488;2023-05-01T02:29:50;5.57;;;3.78;;
22632;SDS011;11483;55.828;37.488;2023-05-01T02:32:17;9.43;;;3.83;;
22632;SDS011;11483;55.828;37.488;2023-05-01T02:34:44;4.90;;;3.58;;
22632;SDS011;11483;55.828;37.488;2023-05-01T02:37:10;7.15;;;4.03;;
22632;SDS011;11483;55.828;37.488;2023-05-01T02:39:36;4.93;;;3.42;;
22632;SDS011;11483;55.828;37.488;2023-05-01T02:42:03;5.70;;;3.75;;
22632;SDS011;11483;55.828;37.488;2023-05-01T02:44:35;4.45;;;3.35;;
22632;SDS011;11483;55.828;37.488;2023-05-01T02:47:05;4.85;;;3.05;;
22632;SDS011;11483;55.828;37.488;2023-05-01T02:49:33;4.13;;;2.97;;
22632;SDS011;11483;55.828;37.488;2023-05-01T02:52:00;4.50;;;3.13;;
22632;SDS011;11483;55.828;37.488;2023-05-01T02:54:29;4.72;;;3.40;;
22632;SDS011;11483;55.828;37.488;2023-05-01T02:56:55;7.93;;;3.33;;
22632;SDS011;11483;55.828;37.488;2023-05-01T02:59:23;4.50;;;3.40;;
22632;SDS011;11483;55.828;37.488;2023-05-01T03:01:49;4.53;;;3.25;;
22632;SDS011;11483;55.828;37.488;2023-05-01T03:04:16;4.82;;;3.42;;
22632;SDS011;11483;55.828;37.488;2023-05-01T03:06:42;4.55;;;3.33;;
22632;SDS011;11483;55.828;37.488;2023-05-01T03:09:08;3.20;;;2.80;;
22632;SDS011;11483;55.828;37.488;2023-05-01T03:11:34;2.85;;;2.60;;
22632;SDS011;11483;55.828;37.488;2023-05-01T03:14:00;4.03;;;3.17;;
22632;SDS011;11483;55.828;37.488;2023-05-01T03:16:26;4.53;;;3.08;;
22632;SDS011;11483;55.828;37.488;2023-05-01T03:18:52;3.70;;;2.58;;
22632;SDS011;11483;55.828;37.488;2023-05-01T03:21:17;5.28;;;3.00;;
22632;SDS011;11483;55.828;37.488;2023-05-01T03:23:43;3.50;;;2.60;;
22632;SDS011;11483;55.828;37.488;2023-05-01T03:26:09;5.90;;;3.13;;
22632;SDS011;11483;55.828;37.488;2023-05-01T03:28:35;5.38;;;2.88;;
22632;SDS011;11483;55.828;37.488;2023-05-01T03:31:01;3.97;;;2.92;;
22632;SDS011;11483;55.828;37.488;2023-05-01T03:33:26;5.68;;;3.50;;
22632;SDS011;11483;55.828;37.488;2023-05-01T03:35:59;3.10;;;2.80;;
22632;SDS011;11483;55.828;37.488;2023-05-01T03:38:29;4.57;;;2.95;;
22632;SDS011;11483;55.828;37.488;2023-05-01T03:40:56;3.38;;;2.75;;
22632;SDS011;11483;55.828;37.488;2023-05-01T03:43:22;4.70;;;3.20;;
22632;SDS011;11483;55.828;37.488;2023-05-01T03:45:48;4.88;;;3.05;;
22632;SDS011;11483;55.828;37.488;2023-05-01T03:48:15;5.85;;;3.50;;
22632;SDS011;11483;55.828;37.488;2023-05-01T03:50:42;5.38;;;3.30;;
22632;SDS011;11483;55.828;37.488;2023-05-01T03:53:08;4.57;;;2.92;;
22632;SDS011;11483;55.828;37.488;2023-05-01T03:55:34;6.00;;;3.22;;
22632;SDS011;11483;55.828;37.488;2023-05-01T03:57:59;4.22;;;2.95;;
22632;SDS011;11483;55.828;37.488;2023-05-01T04:10:08;4.22;;;3.28;;
22632;SDS011;11483;55.828;37.488;2023-05-01T04:12:35;5.18;;;3.38;;
22632;SDS011;11483;55.828;37.488;2023-05-01T04:15:01;5.50;;;3.80;;
22632;SDS011;11483;55.828;37.488;2023-05-01T04:17:29;7.03;;;3.97;;
22632;SDS011;11483;55.828;37.488;2023-05-01T04:19:56;7.38;;;4.18;;
22632;SDS011;11483;55.828;37.488;2023-05-01T04:22:21;6.22;;;4.15;;
22632;SDS011;11483;55.828;37.488;2023-05-01T04:24:47;7.75;;;4.85;;
22632;SDS011;11483;55.828;37.488;2023-05-01T04:27:13;6.75;;;4.28;;
22632;SDS011;11483;55.828;37.488;2023-05-01T04:29:39;7.15;;;4.15;;
22632;SDS011;11483;55.828;37.488;2023-05-01T04:32:06;8.15;;;4.47;;
22632;SDS011;11483;55.828;37.488;2023-05-01T04:34:32;6.28;;;4.28;;
22632;SDS011;11483;55.828;37.488;2023-05-01T04:36:58;5.53;;;4.13;;
22632;SDS011;11483;55.828;37.488;2023-05-01T04:39:24;6.43;;;4.28;;
22632;SDS011;11483;55.828;37.488;2023-05-01T04:41:50;6.82;;;4.47;;
22632;SDS011;11483;55.828;37.488;2023-05-01T04:44:16;6.38;;;4.32;;
22632;SDS011;11483;55.828;37.488;2023-05-01T04:46:41;8.70;;;4.90;;
22632;SDS011;11483;55.828;37.488;2023-05-01T04:49:07;6.70;;;4.63;;
22632;SDS011;11483;55.828;37.488;2023-05-01T04:51:33;9.55;;;4.47;;
22632;SDS011;11483;55.828;37.488;2023-05-01T04:53:59;8.57;;;4.88;;
22632;SDS011;11483;55.828;37.488;2023-05-01T04:56:25;11.45;;;4.97;;
22632;SDS011;11483;55.828;37.488;2023-05-01T04:58:51;9.00;;;5.43;;
22632;SDS011;11483;55.828;37.488;2023-05-01T05:01:17;7.68;;;4.90;;
22632;SDS011;11483;55.828;37.488;2023-05-01T05:03:43;9.63;;;5.25;;
22632;SDS011;11483;55.828;37.488;2023-05-01T05:06:09;7.53;;;5.03;;
22632;SDS011;11483;55.828;37.488;2023-05-01T05:08:35;9.25;;;5.25;;
22632;SDS011;11483;55.828;37.488;2023-05-01T05:11:01;7.07;;;4.70;;
22632;SDS011;11483;55.828;37.488;2023-05-01T05:13:27;7.88;;;4.85;;
22632;SDS011;11483;55.828;37.488;2023-05-01T05:15:53;7.85;;;5.07;;
22632;SDS011;11483;55.828;37.488;2023-05-01T05:18:18;7.85;;;5.00;;
22632;SDS011;11483;55.828;37.488;2023-05-01T05:20:45;8.95;;;5.32;;
22632;SDS011;11483;55.828;37.488;2023-05-01T05:23:11;6.65;;;4.40;;
22632;SDS011;11483;55.828;37.488;2023-05-01T05:25:37;10.55;;;4.85;;
22632;SDS011;11483;55.828;37.488;2023-05-01T05:28:03;9.98;;;5.40;;
22632;SDS011;11483;55.828;37.488;2023-05-01T05:30:29;6.35;;;4.70;;
22632;SDS011;11483;55.828;37.488;2023-05-01T05:32:55;8.35;;;4.90;;
22632;SDS011;11483;55.828;37.488;2023-05-01T05:35:21;9.82;;;5.10;;
22632;SDS011;11483;55.828;37.488;2023-05-01T05:37:47;8.13;;;5.18;;
22632;SDS011;11483;55.828;37.488;2023-05-01T05:40:13;10.60;;;5.22;;
22632;SDS011;11483;55.828;37.488;2023-05-01T05:42:39;6.90;;;4.70;;
22632;SDS011;11483;55.828;37.488;2023-05-01T05:45:05;9.18;;;4.50;;
22632;SDS011;11483;55.828;37.488;2023-05-01T05:47:31;7.80;;;4.43;;
22632;SDS011;11483;55.828;37.488;2023-05-01T05:49:57;10.40;;;4.57;;
22632;SDS011;11483;55.828;37.488;2023-05-01T05:52:23;9.40;;;4.40;;
22632;SDS011;11483;55.828;37.488;2023-05-01T05:54:49;8.13;;;4.28;;
22632;SDS011;11483;55.828;37.488;2023-05-01T05:57:15;8.93;;;4.22;;
22632;SDS011;11483;55.828;37.488;2023-05-01T06:14:17;7.55;;;4.15;;
22632;SDS011;11483;55.828;37.488;2023-05-01T06:16:43;7.63;;;3.75;;
22632;SDS011;11483;55.828;37.488;2023-05-01T06:19:09;8.60;;;4.28;;
22632;SDS011;11483;55.828;37.488;2023-05-01T06:21:36;5.30;;;3.83;;
22632;SDS011;11483;55.828;37.488;2023-05-01T06:24:02;10.73;;;4.70;;
22632;SDS011;11483;55.828;37.488;2023-05-01T06:26:28;6.70;;;4.20;;
22632;SDS011;11483;55.828;37.488;2023-05-01T06:28:54;8.45;;;3.53;;
22632;SDS011;11483;55.828;37.488;2023-05-01T08:23:16;4.65;;;2.97;;
22632;SDS011;11483;55.828;37.488;2023-05-01T08:25:42;10.52;;;3.60;;
22632;SDS011;11483;55.828;37.488;2023-05-01T08:28:15;7.93;;;3.25;;
22632;SDS011;11483;55.828;37.488;2023-05-01T08:30:41;6.10;;;2.85;;
22632;SDS011;11483;55.828;37.488;2023-05-01T08:33:08;7.60;;;3.28;;
22632;SDS011;11483;55.828;37.488;2023-05-01T08:35:34;10.15;;;3.58;;
22632;SDS011;11483;55.828;37.488;2023-05-01T08:38:00;7.05;;;3.22;;
22632;SDS011;11483;55.828;37.488;2023-05-01T08:40:26;6.63;;;3.33;;
22632;SDS011;11483;55.828;37.488;2023-05-01T08:42:57;5.63;;;3.50;;
22632;SDS011;11483;55.828;37.488;2023-05-01T08:45:27;6.28;;;3.00;;
22632;SDS011;11483;55.828;37.488;2023-05-01T08:47:59;5.80;;;3.25;;
22632;SDS011;11483;55.828;37.488;2023-05-01T08:50:30;9.05;;;3.05;;
22632;SDS011;11483;55.828;37.488;2023-05-01T08:52:59;6.45;;;3.25;;
22632;SDS011;11483;55.828;37.488;2023-05-01T08:55:25;7.57;;;3.00;;
22632;SDS011;11483;55.828;37.488;2023-05-01T08:57:54;6.95;;;2.88;;
22632;SDS011;11483;55.828;37.488;2023-05-01T09:00:21;5.95;;;3.08;;
22632;SDS011;11483;55.828;37.488;2023-05-01T09:02:50;4.97;;;2.88;;
22632;SDS011;11483;55.828;37.488;2023-05-01T09:05:19;6.32;;;3.05;;
22632;SDS011;11483;55.828;37.488;2023-05-01T09:07:45;6.30;;;3.30;;
22632;SDS011;11483;55.828;37.488;2023-05-01T09:10:12;5.43;;;3.50;;
22632;SDS011;11483;55.828;37.488;2023-05-01T09:12:40;5.28;;;3.20;;
22632;SDS011;11483;55.828;37.488;2023-05-01T09:15:09;9.32;;;3.60;;
22632;SDS011;11483;55.828;37.488;2023-05-01T09:17:36;6.57;;;3.53;;
22632;SDS011;11483;55.828;37.488;2023-05-01T09:20:02;8.77;;;3.30;;
22632;SDS011;11483;55.828;37.488;2023-05-01T09:22:45;10.82;;;2.90;;
22632;SDS011;11483;55.828;37.488;2023-05-01T09:25:11;7.80;;;3.08;;
22632;SDS011;11483;55.828;37.488;2023-05-01T09:27:37;8.05;;;3.20;;
22632;SDS011;11483;55.828;37.488;2023-05-01T09:30:03;4.07;;;2.65;;
22632;SDS011;11483;55.828;37.488;2023-05-01T09:32:31;4.22;;;2.45;;
22632;SDS011;11483;55.828;37.488;2023-05-01T09:35:10;2.92;;;2.58;;
22632;SDS011;11483;55.828;37.488;2023-05-01T09:37:38;5.68;;;3.15;;
22632;SDS011;11483;55.828;37.488;2023-05-01T09:42:36;5.13;;;3.10;;
22632;SDS011;11483;55.828;37.488;2023-05-01T09:45:05;5.57;;;3.10;;
22632;SDS011;11483;55.828;37.488;2023-05-01T09:47:37;2.88;;;2.60;;
22632;SDS011;11483;55.828;37.488;2023-05-01T09:50:04;8.25;;;3.10;;
22632;SDS011;11483;55.828;37.488;2023-05-01T09:52:30;7.63;;;2.92;;
22632;SDS011;11483;55.828;37.488;2023-05-01T09:55:12;4.05;;;2.88;;
22632;SDS011;11483;55.828;37.488;2023-05-01T09:57:42;6.10;;;3.03;;
22632;SDS011;11483;55.828;37.488;2023-05-01T10:00:09;3.63;;;2.70;;
22632;SDS011;11483;55.828;37.488;2023-05-01T10:02:36;7.57;;;3.03;;
22632;SDS011;11483;55.828;37.488;2023-05-01T10:05:04;10.35;;;3.42;;
22632;SDS011;11483;55.828;37.488;2023-05-01T10:07:31;7.18;;;3.13;;
22632;SDS011;11483;55.828;37.488;2023-05-01T10:09:58;13.13;;;3.28;;
22632;SDS011;11483;55.828;37.488;2023-05-01T10:12:39;5.72;;;3.05;;
22632;SDS011;11483;55.828;37.488;2023-05-01T10:15:05;3.22;;;2.60;;
22632;SDS011;11483;55.828;37.488;2023-05-01T10:17:32;12.27;;;3.33;;
22632;SDS011;11483;55.828;37.488;2023-05-01T10:19:58;4.63;;;2.70;;
22632;SDS011;11483;55.828;37.488;2023-05-01T10:22:24;6.65;;;2.95;;
22632;SDS011;11483;55.828;37.488;2023-05-01T10:27:16;3.63;;;2.45;;
22632;SDS011;11483;55.828;37.488;2023-05-01T10:29:44;5.40;;;2.20;;
22632;SDS011;11483;55.828;37.488;2023-05-01T10:32:13;4.13;;;2.45;;
22632;SDS011;11483;55.828;37.488;2023-05-01T10:34:41;5.97;;;2.60;;
22632;SDS011;11483;55.828;37.488;2023-05-01T10:37:13;2.10;;;1.90;;
22632;SDS011;11483;55.828;37.488;2023-05-01T10:43:21;3.08;;;1.95;;
22632;SDS011;11483;55.828;37.488;2023-05-01T10:45:53;1.70;;;1.60;;
22632;SDS011;11483;55.828;37.488;2023-05-01T10:51:17;3.30;;;1.90;;
22632;SDS011;11483;55.828;37.488;2023-05-01T10:53:48;2.83;;;2.28;;
22632;SDS011;11483;55.828;37.488;2023-05-01T10:58:58;3.05;;;1.80;;
22632;SDS011;11483;55.828;37.488;2023-05-01T11:03:54;2.47;;;1.80;;
22632;SDS011;11483;55.828;37.488;2023-05-01T11:06:22;3.25;;;1.42;;
22632;SDS011;11483;55.828;37.488;2023-05-01T11:08:48;3.03;;;2.08;;
22632;SDS011;11483;55.828;37.488;2023-05-01T11:19:45;8.77;;;2.13;;
22632;SDS011;11483;55.828;37.488;2023-05-01T11:21:52;2.60;;;1.65;;
22632;SDS011;11483;55.828;37.488;2023-05-01T11:24:19;2.08;;;1.70;;
22632;SDS011;11483;55.828;37.488;2023-05-01T11:26:54;3.78;;;1.27;;
22632;SDS011;11483;55.828;37.488;2023-05-01T11:29:21;1.20;;;1.10;;
22632;SDS011;11483;55.828;37.488;2023-05-01T11:31:48;1.33;;;1.15;;
22632;SDS011;11483;55.828;37.488;2023-05-01T11:34:13;1.60;;;1.33;;
22632;SDS011;11483;55.828;37.488;2023-05-01T11:36:50;1.35;;;0.95;;
22632;SDS011;11483;55.828;37.488;2023-05-01T11:39:17;1.60;;;1.50;;
22632;SDS011;11483;55.828;37.488;2023-05-01T11:41:44;2.88;;;1.50;;
22632;SDS011;11483;55.828;37.488;2023-05-01T11:44:11;3.70;;;1.95;;
22632;SDS011;11483;55.828;37.488;2023-05-01T11:46:39;1.90;;;1.13;;
22632;SDS011;11483;55.828;37.488;2023-05-01T11:49:06;3.47;;;1.25;;
22632;SDS011;11483;55.828;37.488;2023-05-01T11:51:32;2.15;;;1.60;;
22632;SDS011;11483;55.828;37.488;2023-05-01T11:54:02;1.38;;;0.98;;
22632;SDS011;11483;55.828;37.488;2023-05-01T11:56:30;4.00;;;1.23;;
22632;SDS011;11483;55.828;37.488;2023-05-01T11:59:15;1.85;;;1.38;;
22632;SDS011;11483;55.828;37.488;2023-05-01T12:01:43;3.47;;;1.35;;
22632;SDS011;11483;55.828;37.488;2023-05-01T12:04:11;1.30;;;1.17;;
22632;SDS011;11483;55.828;37.488;2023-05-01T12:06:42;1.33;;;1.02;;
22632;SDS011;11483;55.828;37.488;2023-05-01T12:09:10;1.45;;;1.30;;
22632;SDS011;11483;55.828;37.488;2023-05-01T12:11:44;5.55;;;1.85;;
22632;SDS011;11483;55.828;37.488;2023-05-01T12:14:10;2.63;;;1.67;;
22632;SDS011;11483;55.828;37.488;2023-05-01T12:16:38;4.28;;;1.80;;
22632;SDS011;11483;55.828;37.488;2023-05-01T12:19:05;2.75;;;2.00;;
22632;SDS011;11483;55.828;37.488;2023-05-01T12:21:31;3.75;;;1.40;;
22632;SDS011;11483;55.828;37.488;2023-05-01T12:24:08;8.50;;;2.45;;
22632;SDS011;11483;55.828;37.488;2023-05-01T12:26:35;5.07;;;1.98;;
22632;SDS011;11483;55.828;37.488;2023-05-01T12:29:05;3.33;;;2.35;;
22632;SDS011;11483;55.828;37.488;2023-05-01T12:31:33;4.97;;;2.15;;
22632;SDS011;11483;55.828;37.488;2023-05-01T12:36:27;3.42;;;2.30;;
22632;SDS011;11483;55.828;37.488;2023-05-01T12:39:00;4.18;;;2.20;;
22632;SDS011;11483;55.828;37.488;2023-05-01T12:41:31;3.75;;;2.40;;
22632;SDS011;11483;55.828;37.488;2023-05-01T12:43:58;5.75;;;2.40;;
22632;SDS011;11483;55.828;37.488;2023-05-01T12:46:25;5.10;;;2.50;;
22632;SDS011;11483;55.828;37.488;2023-05-01T12:48:51;4.30;;;2.40;;
22632;SDS011;11483;55.828;37.488;2023-05-01T12:51:18;4.72;;;2.20;;
22632;SDS011;11483;55.828;37.488;2023-05-01T12:53:45;3.45;;;2.47;;
22632;SDS011;11483;55.828;37.488;2023-05-01T12:56:22;3.33;;;2.20;;
22632;SDS011;11483;55.828;37.488;2023-05-01T12:58:49;3.30;;;2.28;;
22632;SDS011;11483;55.828;37.488;2023-05-01T13:01:23;4.95;;;2.63;;
22632;SDS011;11483;55.828;37.488;2023-05-01T13:03:52;4.00;;;1.70;;
22632;SDS011;11483;55.828;37.488;2023-05-01T13:06:20;5.03;;;2.67;;
22632;SDS011;11483;55.828;37.488;2023-05-01T13:08:46;3.25;;;2.20;;
22632;SDS011;11483;55.828;37.488;2023-05-01T13:11:14;4.82;;;2.42;;
22632;SDS011;11483;55.828;37.488;2023-05-01T13:13:42;8.30;;;2.78;;
22632;SDS011;11483;55.828;37.488;2023-05-01T13:16:10;2.97;;;2.15;;
22632;SDS011;11483;55.828;37.488;2023-05-01T13:18:46;1.90;;;1.75;;
22632;SDS011;11483;55.828;37.488;2023-05-01T13:21:14;2.45;;;1.75;;
22632;SDS011;11483;55.828;37.488;2023-05-01T13:23:42;6.00;;;1.65;;
22632;SDS011;11483;55.828;37.488;2023-05-01T13:26:26;3.95;;;2.08;;
22632;SDS011;11483;55.828;37.488;2023-05-01T13:28:53;1.75;;;1.48;;
22632;SDS011;11483;55.828;37.488;2023-05-01T13:31:19;2.25;;;1.50;;
22632;SDS011;11483;55.828;37.488;2023-05-01T13:33:46;2.50;;;1.98;;
22632;SDS011;11483;55.828;37.488;2023-05-01T13:36:15;2.38;;;1.60;;
22632;SDS011;11483;55.828;37.488;2023-05-01T13:38:42;1.60;;;1.50;;
22632;SDS011;11483;55.828;37.488;2023-05-01T13:41:18;4.53;;;1.90;;
22632;SDS011;11483;55.828;37.488;2023-05-01T13:43:45;2.83;;;1.70;;
22632;SDS011;11483;55.828;37.488;2023-05-01T13:46:15;2.55;;;1.60;;
22632;SDS011;11483;55.828;37.488;2023-05-01T13:48:43;2.53;;;1.35;;
22632;SDS011;11483;55.828;37.488;2023-05-01T13:51:10;2.97;;;1.98;;
22632;SDS011;11483;55.828;37.488;2023-05-01T13:53:37;2.03;;;1.58;;
22632;SDS011;11483;55.828;37.488;2023-05-01T13:56:05;1.85;;;1.60;;
22632;SDS011;11483;55.828;37.488;2023-05-01T13:58:33;2.58;;;1.40;;
22632;SDS011;11483;55.828;37.488;2023-05-01T14:00:59;2.20;;;1.77;;
22632;SDS011;11483;55.828;37.488;2023-05-01T14:03:26;2.33;;;1.95;;
22632;SDS011;11483;55.828;37.488;2023-05-01T14:05:55;3.60;;;1.85;;
22632;SDS011;11483;55.828;37.488;2023-05-01T14:08:21;3.25;;;1.30;;
22632;SDS011;11483;55.828;37.488;2023-05-01T14:10:51;2.00;;;1.65;;
22632;SDS011;11483;55.828;37.488;2023-05-01T14:13:18;1.73;;;1.30;;
22632;SDS011;11483;55.828;37.488;2023-05-01T14:15:43;2.53;;;1.30;;
22632;SDS011;11483;55.828;37.488;2023-05-01T14:18:14;1.50;;;1.40;;
22632;SDS011;11483;55.828;37.488;2023-05-01T14:20:42;1.50;;;1.40;;
22632;SDS011;11483;55.828;37.488;2023-05-01T14:23:10;2.72;;;1.10;;
22632;SDS011;11483;55.828;37.488;2023-05-01T14:25:41;2.50;;;1.70;;
22632;SDS011;11483;55.828;37.488;2023-05-01T14:28:09;4.18;;;1.40;;
22632;SDS011;11483;55.828;37.488;2023-05-01T14:30:39;3.78;;;1.42;;
22632;SDS011;11483;55.828;37.488;2023-05-01T14:33:06;2.33;;;1.40;;
22632;SDS011;11483;55.828;37.488;2023-05-01T14:35:43;2.33;;;1.95;;
22632;SDS011;11483;55.828;37.488;2023-05-01T14:38:16;5.75;;;2.30;;
22632;SDS011;11483;55.828;37.488;2023-05-01T14:40:43;3.42;;;1.95;;
22632;SDS011;11483;55.828;37.488;2023-05-01T14:43:11;2.60;;;1.45;;
22632;SDS011;11483;55.828;37.488;2023-05-01T14:45:43;3.50;;;1.60;;
22632;SDS011;11483;55.828;37.488;2023-05-01T14:48:56;4.40;;;1.70;;
22632;SDS011;11483;55.828;37.488;2023-05-01T14:50:59;17.60;;;2.00;;
22632;SDS011;11483;55.828;37.488;2023-05-01T14:53:31;3.95;;;1.85;;
22632;SDS011;11483;55.828;37.488;2023-05-01T14:55:57;4.68;;;1.63;;
22632;SDS011;11483;55.828;37.488;2023-05-01T14:58:23;2.33;;;1.75;;
22632;SDS011;11483;55.828;37.488;2023-05-01T15:00:49;1.50;;;1.40;;
22632;SDS011;11483;55.828;37.488;2023-05-01T15:03:15;1.67;;;1.48;;
22632;SDS011;11483;55.828;37.488;2023-05-01T15:05:41;1.75;;;1.45;;
22632;SDS011;11483;55.828;37.488;2023-05-01T15:08:08;1.48;;;1.30;;
22632;SDS011;11483;55.828;37.488;2023-05-01T15:10:34;1.63;;;1.45;;
22632;SDS011;11483;55.828;37.488;2023-05-01T15:13:01;1.85;;;1.60;;
22632;SDS011;11483;55.828;37.488;2023-05-01T15:15:27;1.77;;;1.55;;
22632;SDS011;11483;55.828;37.488;2023-05-01T15:17:53;5.07;;;1.70;;
22632;SDS011;11483;55.828;37.488;2023-05-01T15:20:19;2.28;;;2.08;;
22632;SDS011;11483;55.828;37.488;2023-05-01T15:22:45;2.05;;;1.60;;
22632;SDS011;11483;55.828;37.488;2023-05-01T15:25:11;11.95;;;2.28;;
22632;SDS011;11483;55.828;37.488;2023-05-01T15:27:37;1.98;;;1.77;;
22632;SDS011;11483;55.828;37.488;2023-05-01T15:30:03;3.40;;;1.85;;
22632;SDS011;11483;55.828;37.488;2023-05-01T15:32:29;4.60;;;1.90;;
22632;SDS011;11483;55.828;37.488;2023-05-01T15:34:55;3.05;;;1.90;;
22632;SDS011;11483;55.828;37.488;2023-05-01T15:37:22;2.20;;;2.00;;
22632;SDS011;11483;55.828;37.488;2023-05-01T15:39:51;5.95;;;1.98;;
22632;SDS011;11483;55.828;37.488;2023-05-01T15:42:17;2.42;;;1.95;;
22632;SDS011;11483;55.828;37.488;2023-05-01T15:44:43;1.67;;;1.48;;
22632;SDS011;11483;55.828;37.488;2023-05-01T15:47:09;2.70;;;1.65;;
22632;SDS011;11483;55.828;37.488;2023-05-01T15:49:35;2.25;;;1.90;;
22632;SDS011;11483;55.828;37.488;2023-05-01T15:52:01;7.20;;;2.45;;
22632;SDS011;11483;55.828;37.488;2023-05-01T15:54:27;4.97;;;1.85;;
22632;SDS011;11483;55.828;37.488;2023-05-01T15:56:53;2.58;;;2.22;;
22632;SDS011;11483;55.828;37.488;2023-05-01T15:59:19;4.88;;;2.20;;
22632;SDS011;11483;55.828;37.488;2023-05-01T16:01:45;3.63;;;2.47;;
22632;SDS011;11483;55.828;37.488;2023-05-01T16:04:10;3.28;;;2.20;;
22632;SDS011;11483;55.828;37.488;2023-05-01T16:06:37;2.75;;;2.08;;
22632;SDS011;11483;55.828;37.488;2023-05-01T16:09:05;5.32;;;2.70;;
22632;SDS011;11483;55.828;37.488;2023-05-01T16:11:31;2.78;;;2.13;;
22632;SDS011;11483;55.828;37.488;2023-05-01T16:13:57;3.20;;;2.08;;
22632;SDS011;11483;55.828;37.488;2023-05-01T16:16:25;2.20;;;2.00;;
22632;SDS011;11483;55.828;37.488;2023-05-01T16:18:55;2.65;;;2.22;;
22632;SDS011;11483;55.828;37.488;2023-05-01T16:21:23;3.00;;;1.98;;
22632;SDS011;11483;55.828;37.488;2023-05-01T16:23:50;2.55;;;1.90;;
22632;SDS011;11483;55.828;37.488;2023-05-01T16:26:28;2.67;;;1.83;;
22632;SDS011;11483;55.828;37.488;2023-05-01T16:28:59;11.85;;;1.92;;
22632;SDS011;11483;55.828;37.488;2023-05-01T16:31:26;3.28;;;1.95;;
22632;SDS011;11483;55.828;37.488;2023-05-01T16:33:58;3.78;;;2.17;;
22632;SDS011;11483;55.828;37.488;2023-05-01T16:36:24;3.15;;;1.83;;
22632;SDS011;11483;55.828;37.488;2023-05-01T16:38:51;6.25;;;2.13;;
22632;SDS011;11483;55.828;37.488;2023-05-01T16:41:17;3.58;;;2.00;;
22632;SDS011;11483;55.828;37.488;2023-05-01T16:43:46;3.55;;;1.65;;
22632;SDS011;11483;55.828;37.488;2023-05-01T16:46:13;3.65;;;2.20;;
22632;SDS011;11483;55.828;37.488;2023-05-01T16:48:40;2.08;;;1.88;;
22632;SDS011;11483;55.828;37.488;2023-05-01T16:51:07;4.00;;;2.58;;
22632;SDS011;11483;55.828;37.488;2023-05-01T16:53:34;2.63;;;2.42;;
22632;SDS011;11483;55.828;37.488;2023-05-01T16:56:00;2.53;;;1.75;;
22632;SDS011;11483;55.828;37.488;2023-05-01T16:58:26;3.22;;;2.25;;
22632;SDS011;11483;55.828;37.488;2023-05-01T17:00:52;3.97;;;1.90;;
22632;SDS011;11483;55.828;37.488;2023-05-01T17:03:19;2.63;;;1.65;;
22632;SDS011;11483;55.828;37.488;2023-05-01T17:05:45;3.63;;;2.22;;
22632;SDS011;11483;55.828;37.488;2023-05-01T17:08:10;2.30;;;1.90;;
22632;SDS011;11483;55.828;37.488;2023-05-01T17:10:36;3.42;;;2.00;;
22632;SDS011;11483;55.828;37.488;2023-05-01T17:13:02;5.05;;;2.08;;
22632;SDS011;11483;55.828;37.488;2023-05-01T17:15:29;2.45;;;1.90;;
22632;SDS011;11483;55.828;37.488;2023-05-01T17:17:55;3.67;;;2.20;;
22632;SDS011;11483;55.828;37.488;2023-05-01T17:20:21;3.10;;;1.90;;
22632;SDS011;11483;55.828;37.488;2023-05-01T17:22:47;2.58;;;1.98;;
22632;SDS011;11483;55.828;37.488;2023-05-01T17:25:13;2.70;;;1.95;;
22632;SDS011;11483;55.828;37.488;2023-05-01T17:27:39;5.50;;;2.22;;
22632;SDS011;11483;55.828;37.488;2023-05-01T17:30:05;3.35;;;2.45;;
22632;SDS011;11483;55.828;37.488;2023-05-01T17:32:31;3.90;;;2.05;;
22632;SDS011;11483;55.828;37.488;2023-05-01T17:34:57;2.63;;;1.77;;
22632;SDS011;11483;55.828;37.488;2023-05-01T17:37:23;5.05;;;2.17;;
22632;SDS011;11483;55.828;37.488;2023-05-01T17:39:49;3.40;;;2.15;;